createdAt,value
2022-11-05T00:00:18.785Z,87.44
2022-11-05T00:02:45.845Z,87.20
2022-11-05T00:05:13.083Z,87.15
2022-11-05T00:07:45.722Z,86.63
2022-11-05T00:10:21.087Z,85.78
2022-11-05T00:12:49.613Z,86.09
2022-11-05T00:15:17.346Z,85.64
2022-11-05T00:17:44.057Z,85.98
2022-11-05T00:20:11.392Z,85.64
2022-11-05T00:22:38.097Z,85.70
2022-11-05T00:25:05.677Z,85.66
2022-11-05T00:27:33.080Z,85.97
2022-11-05T00:30:01.377Z,85.94
2022-11-05T00:32:28.056Z,85.79
2022-11-05T00:34:55.128Z,85.38
2022-11-05T00:37:21.820Z,85.50
2022-11-05T00:39:48.731Z,85.38
2022-11-05T00:42:15.468Z,85.23
2022-11-05T00:44:42.180Z,85.68
2022-11-05T00:47:10.448Z,85.67
2022-11-05T00:49:37.260Z,85.06
2022-11-05T00:52:05.170Z,85.60
2022-11-05T00:54:31.873Z,85.27
2022-11-05T00:57:04.357Z,84.88
2022-11-05T00:59:31.834Z,85.02
2022-11-05T01:01:58.740Z,85.69
2022-11-05T01:04:27.229Z,85.25
2022-11-05T01:06:55.291Z,85.30
2022-11-05T01:09:22.253Z,85.31
2022-11-05T01:11:49.021Z,85.14
2022-11-05T01:14:16.157Z,85.27
2022-11-05T01:16:42.956Z,85.19
2022-11-05T01:19:11.459Z,85.97
2022-11-05T01:21:39.593Z,85.95
2022-11-05T01:24:07.709Z,85.97
2022-11-05T01:26:34.410Z,85.96
2022-11-05T01:29:01.148Z,85.62
2022-11-05T01:31:28.017Z,85.93
2022-11-05T01:33:55.238Z,85.98
2022-11-05T01:36:22.046Z,85.75
2022-11-05T01:38:50.181Z,85.40
2022-11-05T01:41:17.246Z,85.89
2022-11-05T01:43:49.174Z,86.59
2022-11-05T01:46:22.938Z,86.19
2022-11-05T01:49:00.086Z,86.49
2022-11-05T01:51:29.905Z,86.83
2022-11-05T01:54:04.179Z,86.60
2022-11-05T01:56:38.151Z,86.77
2022-11-05T01:59:11.631Z,86.35
2022-11-05T02:01:39.200Z,86.69
2022-11-05T02:04:14.745Z,86.99
2022-11-05T02:06:42.328Z,86.34
2022-11-05T02:09:18.595Z,86.26
2022-11-05T02:11:46.674Z,87.24
2022-11-05T02:14:13.373Z,87.11
2022-11-05T02:16:50.977Z,87.26
2022-11-05T02:19:57.124Z,86.90
2022-11-05T02:23:05.772Z,86.67
2022-11-05T02:26:19.183Z,86.44
2022-11-05T02:29:33.621Z,86.60
2022-11-05T02:32:13.053Z,86.44
2022-11-05T02:34:55.423Z,86.53
2022-11-05T02:37:38.263Z,86.64
2022-11-05T02:40:17.281Z,87.05
2022-11-05T02:42:57.218Z,87.29
2022-11-05T02:45:42.439Z,87.13
2022-11-05T02:48:23.097Z,86.77
2022-11-05T02:50:59.036Z,86.74
2022-11-05T02:53:39.513Z,86.56
2022-11-05T02:56:17.617Z,86.56
2022-11-05T02:58:44.465Z,87.15
2022-11-05T03:01:12.534Z,86.27
2022-11-05T03:03:46.449Z,86.74
2022-11-05T03:06:46.286Z,86.65
2022-11-05T03:09:43.662Z,87.06
2022-11-05T03:12:27.752Z,87.15
2022-11-05T03:15:08.128Z,87.33
2022-11-05T03:17:45.489Z,86.81
2022-11-05T03:20:22.931Z,87.45
2022-11-05T03:23:00.443Z,87.99
2022-11-05T03:25:31.517Z,86.87
2022-11-05T03:28:06.474Z,87.41
2022-11-05T03:30:39.322Z,87.70
2022-11-05T03:33:15.445Z,87.02
2022-11-05T03:35:51.007Z,87.75
2022-11-05T03:38:26.782Z,87.07
2022-11-05T03:40:59.044Z,87.95
2022-11-05T03:43:35.583Z,87.29
2022-11-05T03:46:09.475Z,87.70
2022-11-05T03:48:44.242Z,87.50
2022-11-05T03:51:25.345Z,87.11
2022-11-05T03:53:59.354Z,87.61
2022-11-05T03:56:33.927Z,87.69
2022-11-05T03:59:04.723Z,87.31
2022-11-05T04:01:32.432Z,87.46
2022-11-05T04:03:59.827Z,88.22
2022-11-05T04:06:28.254Z,87.73
2022-11-05T04:08:55.298Z,87.40
2022-11-05T04:11:22.059Z,88.06
2022-11-05T04:13:48.791Z,87.43
2022-11-05T04:16:15.580Z,87.22
2022-11-05T04:18:43.161Z,87.88
2022-11-05T04:21:11.042Z,87.61
2022-11-05T04:23:39.225Z,87.27
2022-11-05T04:26:05.937Z,87.11
2022-11-05T04:28:32.669Z,87.25
2022-11-05T04:30:59.400Z,87.95
2022-11-05T04:33:26.332Z,87.58
2022-11-05T04:35:53.029Z,86.93
2022-11-05T04:38:20.626Z,86.72
2022-11-05T04:40:48.888Z,86.88
2022-11-05T04:43:18.921Z,87.20
2022-11-05T04:45:46.235Z,86.98
2022-11-05T04:48:13.180Z,86.42
2022-11-05T04:50:40.174Z,86.28
2022-11-05T04:53:06.918Z,86.35
2022-11-05T04:55:33.891Z,86.55
2022-11-05T04:58:01.952Z,86.20
2022-11-05T05:00:29.019Z,86.68
2022-11-05T05:02:55.759Z,86.55
2022-11-05T05:05:22.612Z,86.76
2022-11-05T05:07:49.575Z,85.83
2022-11-05T05:10:16.512Z,86.73
2022-11-05T05:12:43.253Z,86.00
2022-11-05T05:15:11.941Z,86.24
2022-11-05T05:17:38.789Z,86.63
2022-11-05T05:20:06.657Z,86.78
2022-11-05T05:22:33.393Z,86.58
2022-11-05T05:25:00.430Z,86.07
2022-11-05T05:27:28.229Z,86.60
2022-11-05T05:29:55.550Z,85.93
2022-11-05T05:32:25.265Z,85.92
2022-11-05T05:34:52.393Z,85.67
2022-11-05T05:37:19.921Z,85.08
2022-11-05T05:39:46.793Z,85.36
2022-11-05T05:42:14.282Z,84.80
2022-11-05T05:44:41.426Z,85.07
2022-11-05T05:47:08.308Z,84.65
2022-11-05T05:49:36.340Z,84.08
2022-11-05T05:52:03.407Z,84.65
2022-11-05T05:54:33.528Z,83.76
2022-11-05T05:57:02.868Z,83.78
2022-11-05T05:59:29.640Z,84.06
2022-11-05T06:01:56.539Z,83.80
2022-11-05T06:04:23.365Z,83.80
2022-11-05T06:06:52.425Z,83.27
2022-11-05T06:09:19.121Z,83.48
2022-11-05T06:11:46.064Z,84.34
2022-11-05T06:14:13.457Z,84.47
2022-11-05T06:16:40.624Z,85.06
2022-11-05T06:19:10.424Z,85.38
2022-11-05T06:21:37.419Z,85.11
2022-11-05T06:24:06.696Z,85.29
2022-11-05T06:26:34.049Z,85.86
2022-11-05T06:29:03.763Z,85.46
2022-11-05T06:31:33.813Z,85.33
2022-11-05T06:34:00.662Z,85.90
2022-11-05T06:36:27.389Z,85.95
2022-11-05T06:38:54.480Z,86.32
2022-11-05T06:41:25.610Z,86.38
2022-11-05T06:43:52.401Z,86.98
2022-11-05T06:46:19.244Z,86.93
2022-11-05T06:48:47.328Z,86.15
2022-11-05T06:51:14.104Z,86.08
2022-11-05T06:53:41.294Z,86.75
2022-11-05T06:56:08.492Z,86.09
2022-11-05T06:58:37.418Z,86.41
2022-11-05T07:01:08.227Z,85.64
2022-11-05T07:03:35.783Z,85.61
2022-11-05T07:06:06.353Z,86.45
2022-11-05T07:08:36.297Z,85.81
2022-11-05T07:11:04.105Z,85.76
2022-11-05T07:13:31.322Z,85.45
2022-11-05T07:15:59.760Z,85.83
2022-11-05T07:18:27.562Z,85.72
2022-11-05T07:20:54.827Z,85.71
2022-11-05T07:23:22.062Z,85.27
2022-11-05T07:25:49.000Z,85.86
2022-11-05T07:28:17.556Z,85.79
2022-11-05T07:30:52.389Z,85.84
2022-11-05T07:33:20.711Z,85.73
2022-11-05T07:35:47.475Z,85.14
2022-11-05T07:38:14.478Z,84.53
2022-11-05T07:40:41.280Z,84.88
2022-11-05T07:43:08.236Z,84.60
2022-11-05T07:45:35.048Z,85.08
2022-11-05T07:48:04.207Z,84.86
2022-11-05T07:50:36.469Z,84.34
2022-11-05T07:53:07.716Z,84.76
2022-11-05T07:55:35.059Z,84.89
2022-11-05T07:58:03.702Z,83.55
2022-11-05T08:00:31.255Z,83.69
2022-11-05T08:03:20.724Z,84.35
2022-11-05T08:05:52.702Z,83.59
2022-11-05T08:08:20.336Z,83.31
2022-11-05T08:10:53.089Z,83.00
2022-11-05T08:13:21.116Z,83.30
2022-11-05T08:15:48.150Z,83.23
2022-11-05T08:18:24.619Z,83.36
2022-11-05T08:21:19.073Z,82.59
2022-11-05T08:23:52.522Z,82.55
2022-11-05T08:32:39.824Z,82.30
2022-11-05T08:40:37.643Z,82.19
2022-11-05T08:47:37.521Z,81.89
2022-11-05T08:54:59.745Z,82.48
2022-11-05T08:57:38.009Z,82.00
2022-11-05T09:00:06.529Z,81.78
2022-11-05T09:02:33.756Z,83.13
2022-11-05T09:05:00.773Z,82.26
2022-11-05T09:07:27.506Z,82.90
2022-11-05T09:09:54.558Z,82.57
2022-11-05T09:12:23.457Z,82.61
2022-11-05T09:14:53.979Z,82.60
2022-11-05T09:17:21.969Z,82.29
2022-11-05T09:19:49.140Z,81.57
2022-11-05T09:22:21.297Z,81.71
2022-11-05T09:24:48.456Z,82.38
2022-11-05T09:27:15.259Z,81.61
2022-11-05T09:29:42.615Z,80.91
2022-11-05T09:32:10.882Z,80.08
2022-11-05T09:34:37.951Z,82.04
2022-11-05T09:37:05.155Z,80.87
2022-11-05T09:39:34.769Z,80.70
2022-11-05T09:42:07.143Z,78.90
2022-11-05T09:44:47.012Z,79.71
2022-11-05T09:47:22.369Z,79.41
2022-11-05T09:49:56.005Z,81.25
2022-11-05T09:52:27.990Z,78.48
2022-11-05T09:54:57.230Z,80.51
2022-11-05T09:57:30.103Z,77.31
2022-11-05T10:00:02.423Z,78.00
2022-11-05T10:02:44.221Z,78.58
2022-11-05T10:05:18.877Z,79.66
2022-11-05T10:07:51.468Z,78.95
2022-11-05T10:10:42.077Z,80.00
2022-11-05T10:13:23.515Z,80.25
2022-11-05T10:16:01.147Z,79.63
2022-11-05T10:18:34.966Z,81.32
2022-11-05T10:21:03.409Z,81.22
2022-11-05T10:23:30.494Z,80.40
2022-11-05T10:26:06.359Z,81.59
2022-11-05T10:28:35.136Z,81.21
2022-11-05T10:31:14.127Z,80.64
2022-11-05T10:33:47.435Z,81.67
2022-11-05T10:36:23.364Z,82.29
2022-11-05T10:38:51.502Z,82.16
2022-11-05T10:41:40.867Z,82.26
2022-11-05T10:44:30.830Z,82.37
2022-11-05T10:47:45.003Z,82.74
2022-11-05T10:50:21.867Z,81.75
2022-11-05T10:53:01.410Z,82.03
2022-11-05T10:55:36.839Z,82.16
2022-11-05T10:58:11.092Z,81.23
2022-11-05T11:00:38.984Z,81.11
2022-11-05T11:03:39.652Z,80.85
2022-11-05T11:06:23.830Z,79.91
2022-11-05T11:08:53.668Z,78.58
2022-11-05T11:11:32.360Z,78.57
2022-11-05T11:14:05.137Z,78.29
2022-11-05T11:16:41.379Z,78.38
2022-11-05T11:19:26.383Z,77.85
2022-11-05T11:22:19.378Z,77.14
2022-11-05T11:24:50.051Z,77.32
2022-11-05T11:27:24.101Z,77.56
2022-11-05T11:30:00.000Z,79.19
2022-11-05T11:32:36.245Z,77.35
2022-11-05T11:35:08.477Z,76.56
2022-11-05T11:37:40.168Z,76.79
2022-11-05T11:40:19.134Z,76.13
2022-11-05T11:42:49.477Z,78.04
2022-11-05T11:45:28.107Z,76.98
2022-11-05T11:47:57.137Z,77.29
2022-11-05T11:50:39.273Z,77.53
2022-11-05T11:53:29.441Z,77.86
2022-11-05T11:56:13.954Z,76.31
2022-11-05T11:58:46.343Z,76.83
2022-11-05T12:01:45.884Z,76.28
2022-11-05T12:04:34.461Z,76.72
2022-11-05T12:07:25.023Z,76.98
2022-11-05T12:10:23.265Z,76.37
2022-11-05T12:13:12.620Z,75.06
2022-11-05T12:15:51.505Z,74.92
2022-11-05T12:18:33.538Z,76.40
2022-11-05T12:21:09.607Z,75.28
2022-11-05T12:24:14.675Z,74.94
2022-11-05T12:27:01.865Z,74.64
2022-11-05T12:29:47.850Z,74.99
2022-11-05T12:33:07.538Z,75.98
2022-11-05T12:35:57.421Z,76.83
2022-11-05T12:38:48.733Z,74.47
2022-11-05T12:41:26.944Z,74.34
2022-11-05T12:44:27.392Z,74.50
2022-11-05T12:47:17.607Z,74.00
2022-11-05T12:50:07.043Z,73.41
2022-11-05T12:53:01.495Z,74.03
2022-11-05T12:55:37.637Z,73.72
2022-11-05T12:58:12.965Z,72.92
2022-11-05T13:00:53.121Z,71.97
2022-11-05T13:03:34.251Z,72.08
2022-11-05T13:06:07.456Z,71.63
2022-11-05T13:08:44.686Z,72.19
2022-11-05T13:11:21.389Z,71.96
2022-11-05T13:14:08.924Z,70.32
2022-11-05T13:16:43.061Z,71.88
2022-11-05T13:19:20.160Z,72.05
2022-11-05T13:21:54.579Z,71.04
2022-11-05T13:24:28.536Z,71.22
2022-11-05T13:27:05.316Z,70.89
2022-11-05T13:29:49.412Z,71.27
2022-11-05T13:32:29.056Z,71.36
2022-11-05T13:34:56.745Z,72.21
2022-11-05T13:37:30.663Z,72.74
2022-11-05T13:40:03.336Z,72.07
2022-11-05T13:43:06.935Z,72.15
2022-11-05T13:46:06.058Z,71.98
2022-11-05T13:48:58.762Z,72.08
2022-11-05T13:52:45.314Z,71.19
2022-11-05T13:55:37.368Z,70.03
2022-11-05T13:58:36.175Z,71.02
2022-11-05T14:01:17.867Z,70.21
2022-11-05T14:03:49.905Z,70.02
2022-11-05T14:06:27.073Z,70.16
2022-11-05T14:09:01.093Z,70.98
2022-11-05T14:11:34.294Z,70.73
2022-11-05T14:14:05.249Z,70.69
2022-11-05T14:16:50.709Z,71.54
2022-11-05T14:20:23.668Z,72.40
2022-11-05T14:22:51.854Z,71.05
2022-11-05T14:25:56.702Z,72.48
2022-11-05T14:28:44.111Z,72.31
2022-11-05T14:31:54.472Z,72.70
2022-11-05T14:34:39.263Z,72.72
2022-11-05T14:37:30.749Z,72.94
2022-11-05T14:40:28.719Z,71.92
2022-11-05T14:42:59.950Z,72.08
2022-11-05T14:45:32.384Z,72.56
2022-11-05T14:48:02.996Z,71.53
2022-11-05T14:50:36.573Z,72.43
2022-11-05T14:53:29.891Z,72.64
2022-11-05T14:56:03.101Z,72.43
2022-11-05T14:58:35.063Z,72.03
2022-11-05T15:01:04.998Z,72.29
2022-11-05T15:04:00.216Z,72.42
2022-11-05T15:06:32.631Z,72.50
2022-11-05T15:09:29.262Z,72.65
2022-11-05T15:12:13.000Z,73.45
2022-11-05T15:14:54.678Z,72.97
2022-11-05T15:17:27.189Z,73.05
2022-11-05T15:19:54.815Z,74.03
2022-11-05T15:22:36.574Z,73.39
2022-11-05T15:25:19.139Z,74.29
2022-11-05T15:28:03.644Z,73.97
2022-11-05T15:30:31.101Z,74.28
2022-11-05T15:33:10.612Z,74.07
2022-11-05T15:35:40.563Z,74.57
2022-11-05T15:38:28.197Z,74.79
2022-11-05T15:41:03.212Z,74.29
2022-11-05T15:43:30.224Z,74.13
2022-11-05T15:46:04.385Z,74.53
2022-11-05T15:48:32.444Z,75.34
2022-11-05T15:50:59.412Z,74.76
2022-11-05T15:54:23.782Z,75.26
2022-11-05T15:57:02.824Z,75.68
2022-11-05T15:59:30.617Z,75.82
2022-11-05T16:02:05.499Z,76.58
2022-11-05T16:04:35.282Z,76.36
2022-11-05T16:07:11.897Z,77.18
2022-11-05T16:09:42.716Z,77.55
2022-11-05T16:12:24.969Z,77.44
2022-11-05T16:14:59.145Z,78.47
2022-11-05T16:17:31.385Z,78.54
2022-11-05T16:19:59.148Z,78.13
2022-11-05T16:22:44.868Z,77.60
2022-11-05T16:25:27.938Z,77.89
2022-11-05T16:27:57.020Z,78.02
2022-11-05T16:30:25.360Z,77.63
2022-11-05T16:32:53.192Z,78.44
2022-11-05T16:35:24.385Z,77.69
2022-11-05T16:37:52.632Z,78.15
2022-11-05T16:40:23.179Z,80.01
2022-11-05T16:42:52.657Z,79.94
2022-11-05T16:45:24.546Z,80.26
2022-11-05T16:47:54.032Z,80.99
2022-11-05T16:50:26.743Z,80.22
2022-11-05T16:52:53.999Z,80.71
2022-11-05T16:55:21.331Z,80.35
2022-11-05T16:57:52.038Z,79.19
2022-11-05T17:00:22.901Z,79.77
2022-11-05T17:02:50.220Z,80.09
2022-11-05T17:05:23.148Z,80.01
2022-11-05T17:07:50.777Z,80.91
2022-11-05T17:10:18.298Z,81.08
2022-11-05T17:12:45.342Z,81.23
2022-11-05T17:15:19.888Z,81.55
2022-11-05T17:17:48.953Z,81.59
2022-11-05T17:20:27.687Z,81.94
2022-11-05T17:22:54.902Z,81.84
2022-11-05T17:25:22.454Z,81.96
2022-11-05T17:27:49.947Z,82.82
2022-11-05T17:30:17.487Z,82.98
2022-11-05T17:32:44.454Z,82.99
2022-11-05T17:35:13.957Z,82.90
2022-11-05T17:37:41.496Z,83.75
2022-11-05T17:40:14.360Z,84.51
2022-11-05T17:42:41.764Z,84.57
2022-11-05T17:45:10.843Z,83.71
2022-11-05T17:47:38.784Z,84.03
2022-11-05T17:50:09.853Z,84.12
2022-11-05T17:52:38.570Z,84.20
2022-11-05T17:55:07.571Z,83.88
2022-11-05T17:57:34.591Z,84.17
2022-11-05T18:00:01.413Z,84.23
2022-11-05T18:02:37.711Z,84.42
2022-11-05T18:05:06.339Z,84.30
2022-11-05T18:07:33.220Z,83.98
2022-11-05T18:10:01.775Z,84.58
2022-11-05T18:12:28.687Z,85.26
2022-11-05T18:14:56.162Z,86.22
2022-11-05T18:17:23.106Z,86.23
2022-11-05T18:19:50.250Z,86.39
2022-11-05T18:22:18.442Z,86.23
2022-11-05T18:24:45.462Z,86.13
2022-11-05T18:27:14.319Z,85.90
2022-11-05T18:29:41.675Z,86.21
2022-11-05T18:32:08.520Z,85.63
2022-11-05T18:34:35.881Z,85.55
2022-11-05T18:37:03.141Z,85.90
2022-11-05T18:39:33.128Z,86.50
2022-11-05T18:42:00.000Z,85.41
2022-11-05T18:44:28.612Z,85.45
2022-11-05T18:46:58.368Z,85.67
2022-11-05T18:49:26.729Z,84.63
2022-11-05T18:51:53.759Z,85.23
2022-11-05T18:54:21.193Z,86.28
2022-11-05T18:56:48.091Z,87.55
2022-11-05T19:02:08.800Z,88.17
2022-11-05T19:04:36.534Z,88.71
2022-11-05T19:07:05.564Z,90.21
2022-11-05T19:09:33.585Z,89.82
2022-11-05T19:12:00.611Z,89.55
2022-11-05T19:14:27.793Z,90.14
2022-11-05T19:16:54.748Z,90.02
2022-11-05T19:19:22.911Z,90.83
2022-11-05T19:21:50.093Z,90.55
2022-11-05T19:24:17.437Z,90.21
2022-11-05T19:26:44.951Z,89.86
2022-11-05T19:29:11.858Z,89.27
2022-11-05T19:31:39.093Z,89.80
2022-11-05T19:34:05.935Z,88.87
2022-11-05T19:36:36.803Z,88.74
2022-11-05T19:39:07.296Z,88.54
2022-11-05T19:41:34.669Z,89.08
2022-11-05T19:44:01.999Z,89.63
2022-11-05T19:46:30.949Z,90.09
2022-11-05T19:48:59.158Z,89.30
2022-11-05T19:51:28.733Z,89.29
2022-11-05T19:53:58.698Z,89.69
2022-11-05T19:56:28.562Z,89.26
2022-11-05T19:58:57.315Z,87.95
2022-11-05T20:01:26.837Z,88.00
2022-11-05T20:03:55.507Z,87.35
2022-11-05T20:06:26.805Z,86.91
2022-11-05T20:09:23.386Z,87.02
2022-11-05T20:12:01.153Z,86.91
2022-11-05T20:14:38.370Z,88.20
2022-11-05T21:08:07.638Z,87.43
2022-11-05T21:11:09.723Z,87.06
2022-11-05T21:13:38.398Z,89.33
2022-11-05T21:16:20.817Z,88.98
2022-11-05T21:18:49.920Z,89.92
2022-11-05T21:21:19.472Z,88.97
2022-11-05T21:23:48.046Z,89.83
2022-11-05T21:26:15.869Z,89.32
2022-11-05T21:28:43.206Z,87.70
2022-11-05T21:31:10.903Z,88.38
2022-11-05T21:33:38.324Z,88.27
2022-11-05T21:36:09.840Z,87.76
2022-11-05T21:38:37.449Z,87.14
2022-11-05T21:41:08.664Z,87.65
2022-11-05T21:43:35.550Z,87.34
2022-11-05T21:46:04.240Z,86.88
2022-11-05T21:48:31.562Z,87.46
2022-11-05T21:50:58.392Z,87.93
2022-11-05T21:53:25.537Z,88.68
2022-11-05T21:55:52.262Z,88.69
2022-11-05T21:58:20.634Z,88.74
2022-11-05T22:00:47.401Z,88.15
2022-11-05T22:03:14.373Z,87.91
2022-11-05T22:05:41.216Z,88.91
2022-11-05T22:08:07.924Z,88.98
2022-11-05T22:10:34.677Z,89.86
2022-11-05T22:13:01.976Z,89.60
2022-11-05T22:15:30.136Z,90.45
2022-11-05T22:17:57.052Z,89.61
2022-11-05T22:20:23.834Z,90.19
2022-11-05T22:22:50.555Z,90.65
2022-11-05T22:25:17.584Z,90.23
2022-11-05T22:27:44.311Z,89.47
2022-11-05T22:30:13.523Z,90.25
2022-11-05T22:32:41.909Z,89.27
2022-11-05T22:35:09.823Z,89.46
2022-11-05T22:37:36.536Z,88.67
2022-11-05T22:40:03.876Z,87.98
2022-11-05T22:42:30.664Z,88.53
2022-11-05T22:44:57.397Z,88.86
2022-11-05T22:47:24.189Z,88.31
2022-11-05T22:49:52.477Z,89.23
2022-11-05T22:52:19.196Z,89.50
2022-11-05T22:54:46.850Z,89.22
2022-11-05T22:57:13.561Z,89.53
2022-11-05T22:59:40.715Z,89.56
2022-11-05T23:02:10.081Z,89.31
2022-11-05T23:04:37.889Z,88.46
2022-11-05T23:07:07.080Z,89.00
2022-11-05T23:09:35.349Z,89.11
2022-11-05T23:12:05.434Z,88.48
2022-11-05T23:14:32.960Z,89.15
2022-11-05T23:16:59.935Z,89.20
2022-11-05T23:19:28.025Z,88.73
2022-11-05T23:21:54.831Z,88.83
2022-11-05T23:24:22.894Z,88.73
2022-11-05T23:26:50.239Z,89.89
2022-11-05T23:29:17.428Z,88.83
2022-11-05T23:31:44.613Z,89.18
2022-11-05T23:34:11.605Z,89.47
2022-11-05T23:36:38.336Z,89.68
2022-11-05T23:39:05.056Z,89.61
2022-11-05T23:41:33.151Z,89.94
2022-11-05T23:43:59.849Z,90.06
2022-11-05T23:46:26.845Z,89.76
2022-11-05T23:48:53.757Z,89.83
2022-11-05T23:51:20.506Z,90.03
2022-11-05T23:53:47.537Z,92.10
2022-11-05T23:56:15.980Z,92.23
2022-11-05T23:58:44.298Z,92.10
